Time;durP1;ratioP1;P1;durP2;ratioP2;P2;SDS_P1;SDS_P2;PMS_P1;PMS_P2;Temp;Humidity;BMP_temperature;BMP_pressure;BME280_temperature;BME280_humidity;BME280_pressure;Samples;Min_cycle;Max_cycle;Signal;HPM_P1;HPM_P2
2023/08/08 00:01:01;;;;;;;2.40;1.38;;;;;;;14.84;38.11;92670.44;4790522;29;20039;-81
2023/08/08 00:03:27;;;;;;;3.00;1.40;;;;;;;14.84;38.75;92667.81;4790018;29;20039;-81
2023/08/08 00:05:52;;;;;;;2.85;1.30;;;;;;;14.81;38.98;92676.34;4784340;30;20076;-82
2023/08/08 00:08:18;;;;;;;2.10;1.17;;;;;;;14.83;38.46;92676.81;4790242;29;20055;-82
2023/08/08 00:10:44;;;;;;;3.80;1.20;;;;;;;14.86;38.21;92669.09;4789983;30;20042;-81
2023/08/08 00:13:09;;;;;;;2.38;1.30;;;;;;;14.93;38.86;92666.00;4789098;30;20063;-83
2023/08/08 00:15:36;;;;;;;3.22;1.42;;;;;;;14.88;38.49;92666.13;4791039;29;20408;-82
2023/08/08 00:18:01;;;;;;;3.85;1.40;;;;;;;14.89;38.69;92673.72;4793280;29;20027;-82
2023/08/08 00:20:27;;;;;;;5.30;1.20;;;;;;;14.91;38.64;92673.44;4794534;30;20503;-83
2023/08/08 00:22:53;;;;;;;2.63;1.30;;;;;;;14.89;38.76;92673.72;4793805;29;20063;-82
2023/08/08 00:25:19;;;;;;;2.80;1.50;;;;;;;14.89;38.96;92675.59;4792760;30;20042;-81
2023/08/08 00:27:44;;;;;;;2.50;1.38;;;;;;;14.84;39.16;92681.00;4793096;29;20049;-82
2023/08/08 00:30:12;;;;;;;3.13;1.30;;;;;;;14.80;39.21;92682.72;4793618;29;20406;-83
2023/08/08 00:32:38;;;;;;;2.15;1.20;;;;;;;14.81;39.28;92678.97;4794027;29;20031;-82
2023/08/08 00:35:04;;;;;;;2.28;1.23;;;;;;;14.86;38.79;92682.25;4794329;29;20054;-82
2023/08/08 00:37:30;;;;;;;4.78;1.40;;;;;;;14.81;39.05;92669.22;4792817;29;20514;-82
2023/08/08 00:39:55;;;;;;;2.60;1.30;;;;;;;14.85;39.06;92667.53;4778153;30;20045;-82
2023/08/08 00:42:21;;;;;;;2.10;1.08;;;;;;;14.83;39.04;92671.56;4794112;29;20514;-81
2023/08/08 00:44:46;;;;;;;3.25;1.40;;;;;;;14.78;39.32;92670.59;4794047;29;20040;-82
2023/08/08 00:47:13;;;;;;;2.55;1.30;;;;;;;14.78;39.30;92675.09;4793840;29;20027;-81
2023/08/08 00:49:39;;;;;;;1.80;1.00;;;;;;;14.75;39.27;92673.09;4793629;29;20043;-82
2023/08/08 00:52:06;;;;;;;2.72;1.42;;;;;;;14.73;39.87;92676.03;4794440;30;20372;-82
2023/08/08 00:54:32;;;;;;;2.33;1.30;;;;;;;14.71;39.68;92672.91;4793633;29;20027;-81
2023/08/08 00:56:57;;;;;;;1.63;1.10;;;;;;;14.73;39.91;92675.25;4792639;29;20407;-82
2023/08/08 00:59:23;;;;;;;2.88;1.20;;;;;;;14.75;39.32;92673.88;4794526;30;20059;-82
2023/08/08 01:01:49;;;;;;;2.72;1.23;;;;;;;14.75;39.74;92681.78;4777007;30;20106;-82
2023/08/08 01:04:16;;;;;;;2.00;1.13;;;;;;;14.76;39.15;92685.19;4791401;30;20073;-82
2023/08/08 01:07:25;;;;;;;4.38;1.38;;;;;;;14.85;39.03;92679.94;4791826;29;20498;-82
2023/08/08 01:09:56;;;;;;;2.13;1.25;;;;;;;14.86;38.49;92676.19;4792461;30;20051;-83
2023/08/08 01:12:25;;;;;;;3.13;1.60;;;;;;;14.82;38.67;92672.66;4806648;29;20166;-84
2023/08/08 01:14:54;;;;;;;2.85;1.35;;;;;;;14.88;39.13;92679.31;4793477;29;20110;-83
2023/08/08 01:17:22;;;;;;;3.10;1.17;;;;;;;14.89;39.01;92665.81;4793408;29;20131;-83
2023/08/08 01:19:47;;;;;;;3.33;1.50;;;;;;;14.88;38.82;92674.81;4793809;29;20696;-83
2023/08/08 01:22:32;;;;;;;2.17;1.13;;;;;;;14.84;39.32;92665.19;4791547;30;20138;-82
2023/08/08 01:25:00;;;;;;;1.90;1.20;;;;;;;14.79;39.39;92666.09;4793470;29;20407;-82
2023/08/08 01:27:26;;;;;;;2.47;1.20;;;;;;;14.77;39.22;92673.53;4791924;29;20063;-82
2023/08/08 01:29:53;;;;;;;2.35;1.30;;;;;;;14.74;39.37;92672.28;4791421;29;20112;-83
2023/08/08 01:32:18;;;;;;;2.50;1.40;;;;;;;14.76;39.36;92669.38;4791899;30;20113;-83
2023/08/08 01:34:44;;;;;;;2.42;1.30;;;;;;;14.75;39.48;92671.22;4793239;29;20047;-83
2023/08/08 01:37:39;;;;;;;2.20;1.20;;;;;;;14.75;39.27;92678.38;4792432;29;20054;-83
2023/08/08 01:40:06;;;;;;;2.97;1.40;;;;;;;14.73;39.43;92681.28;4786532;30;20100;-83
2023/08/08 01:42:33;;;;;;;2.20;1.20;;;;;;;14.71;39.24;92678.19;4792018;30;20383;-82
2023/08/08 01:44:59;;;;;;;2.20;1.20;;;;;;;14.70;39.81;92674.00;4792093;30;20055;-82
2023/08/08 01:47:27;;;;;;;2.97;1.23;;;;;;;14.73;39.10;92672.63;4792435;29;20482;-82
2023/08/08 01:49:52;;;;;;;2.70;1.40;;;;;;;14.70;39.08;92679.28;4791756;30;20108;-81
2023/08/08 01:52:18;;;;;;;2.40;1.17;;;;;;;14.68;39.08;92663.00;4793440;30;20058;-81
2023/08/08 01:54:44;;;;;;;2.97;1.35;;;;;;;14.70;39.17;92663.47;4792707;29;20116;-81
2023/08/08 01:57:11;;;;;;;4.15;1.48;;;;;;;14.70;39.57;92660.84;4791291;29;20135;-82
2023/08/08 01:59:37;;;;;;;2.15;1.20;;;;;;;14.70;39.41;92658.22;4792079;30;20035;-82
2023/08/08 02:02:03;;;;;;;2.45;1.30;;;;;;;14.71;39.20;92651.84;4793141;29;20054;-83
2023/08/08 02:04:29;;;;;;;3.13;1.40;;;;;;;14.70;39.53;92655.56;4793336;29;20031;-82
2023/08/08 02:06:54;;;;;;;2.80;1.30;;;;;;;14.71;39.49;92649.22;4786347;30;20529;-82
2023/08/08 02:09:20;;;;;;;2.78;1.33;;;;;;;14.70;39.32;92645.03;4792076;29;20055;-82
2023/08/08 02:11:45;;;;;;;2.88;1.40;;;;;;;14.64;39.30;92646.25;4792667;29;20418;-82
2023/08/08 02:14:11;;;;;;;1.73;1.05;;;;;;;14.70;40.02;92655.56;4806302;29;20453;-82
2023/08/08 02:16:37;;;;;;;2.50;1.30;;;;;;;14.72;40.01;92653.38;4791355;29;20071;-82
2023/08/08 02:19:02;;;;;;;2.67;1.30;;;;;;;14.70;40.22;92655.56;4792437;29;20399;-82
2023/08/08 02:21:28;;;;;;;2.88;1.50;;;;;;;14.67;40.75;92652.75;4803220;29;20056;-82
2023/08/08 02:23:53;;;;;;;2.08;1.08;;;;;;;14.63;41.91;92649.94;4803210;29;20026;-82
2023/08/08 02:26:20;;;;;;;2.35;1.30;;;;;;;14.58;42.30;92645.59;4774481;30;20122;-82
2023/08/08 02:28:45;;;;;;;2.75;1.10;;;;;;;14.54;43.68;92635.97;4776382;30;20149;-82
2023/08/08 02:31:11;;;;;;;3.35;1.25;;;;;;;14.45;45.06;92635.94;4790555;30;20133;-82
2023/08/08 02:33:36;;;;;;;2.90;1.48;;;;;;;14.34;42.71;92624.94;4792238;30;20129;-82
2023/08/08 02:36:02;;;;;;;3.05;1.27;;;;;;;14.29;44.82;92634.81;4792136;29;20035;-82
2023/08/08 02:38:28;;;;;;;3.83;1.30;;;;;;;14.19;46.36;92635.88;4792486;29;20070;-82
2023/08/08 02:40:53;;;;;;;2.25;1.10;;;;;;;14.16;46.70;92633.81;4791923;29;20394;-82
2023/08/08 02:43:19;;;;;;;2.53;1.30;;;;;;;14.10;46.77;92632.44;4805874;29;20039;-82
2023/08/08 02:45:45;;;;;;;2.60;1.30;;;;;;;14.11;47.21;92647.13;4805293;29;20514;-82
2023/08/08 02:48:11;;;;;;;2.40;1.20;;;;;;;14.10;48.67;92643.72;4775719;30;20039;-82
2023/08/08 02:50:37;;;;;;;3.00;1.40;;;;;;;14.02;49.15;92638.41;4805342;29;20494;-82
2023/08/08 02:53:03;;;;;;;3.17;1.40;;;;;;;13.95;49.73;92644.88;4791312;30;20039;-84
2023/08/08 02:55:35;;;;;;;3.03;1.30;;;;;;;13.84;50.06;92635.69;4790890;29;20047;-83
2023/08/08 02:58:01;;;;;;;2.55;1.38;;;;;;;13.81;50.66;92648.69;4791670;29;20121;-82
2023/08/08 03:00:26;;;;;;;2.53;1.30;;;;;;;13.79;51.50;92656.13;4789803;30;20039;-83
2023/08/08 03:02:53;;;;;;;2.75;1.20;;;;;;;13.71;52.05;92644.44;4786675;30;20049;-84
2023/08/08 03:05:19;;;;;;;3.40;1.38;;;;;;;13.74;52.12;92657.00;4805479;29;20047;-81
2023/08/08 03:07:46;;;;;;;2.67;1.30;;;;;;;13.70;51.10;92658.69;4790489;30;20031;-83
2023/08/08 03:10:13;;;;;;;2.28;1.30;;;;;;;13.67;50.35;92665.34;4805600;29;20051;-83
2023/08/08 03:12:41;;;;;;;6.32;1.42;;;;;;;13.63;50.96;92663.59;4801532;29;20060;-84
2023/08/08 03:15:07;;;;;;;2.17;1.20;;;;;;;13.60;50.33;92670.25;4802036;29;20044;-83
2023/08/08 03:17:34;;;;;;;2.25;1.20;;;;;;;13.57;50.50;92665.56;4772152;29;20019;-83
2023/08/08 03:20:01;;;;;;;2.28;1.20;;;;;;;13.58;49.88;92666.34;4756783;30;20036;-83
2023/08/08 03:22:26;;;;;;;2.78;1.20;;;;;;;13.58;49.81;92671.59;4795029;29;20047;-84
2023/08/08 03:24:52;;;;;;;3.20;1.45;;;;;;;13.56;50.95;92671.16;4789539;30;20039;-82
2023/08/08 03:27:18;;;;;;;2.72;1.38;;;;;;;13.56;50.82;92673.78;4789762;29;20039;-83
2023/08/08 03:29:48;;;;;;;3.05;1.40;;;;;;;13.52;51.96;92676.97;4789082;30;20131;-84
2023/08/08 03:32:15;;;;;;;2.92;1.40;;;;;;;13.54;52.62;92672.22;4789501;30;20130;-82
2023/08/08 03:34:40;;;;;;;3.80;1.48;;;;;;;13.49;52.71;92664.44;4790065;29;20072;-82
2023/08/08 03:37:06;;;;;;;2.95;1.73;;;;;;;13.49;53.99;92669.69;4774922;30;20044;-82
2023/08/08 03:39:32;;;;;;;3.22;1.40;;;;;;;13.44;54.14;92664.56;4804819;29;20076;-83
2023/08/08 03:41:57;;;;;;;3.10;1.50;;;;;;;13.37;54.51;92660.78;4790921;29;20046;-83
2023/08/08 03:44:24;;;;;;;2.75;1.23;;;;;;;13.32;54.60;92659.06;4776022;30;20069;-83
2023/08/08 03:46:50;;;;;;;3.53;1.60;;;;;;;13.31;55.49;92665.41;4789156;29;20043;-83
2023/08/08 03:49:16;;;;;;;3.03;1.50;;;;;;;13.25;54.36;92663.94;4791078;29;20058;-83
2023/08/08 03:51:42;;;;;;;2.92;1.40;;;;;;;13.23;54.41;92656.31;4788991;29;20406;-83
2023/08/08 03:54:08;;;;;;;3.35;1.58;;;;;;;13.23;54.67;92661.59;4789894;30;20043;-83
2023/08/08 03:56:33;;;;;;;4.05;1.50;;;;;;;13.23;54.67;92664.22;4789421;29;20582;-83
2023/08/08 03:58:59;;;;;;;3.15;1.30;;;;;;;13.26;54.21;92662.84;4789529;29;20346;-83
2023/08/08 04:01:25;;;;;;;3.30;1.38;;;;;;;13.27;54.42;92674.91;4789308;30;20481;-83
2023/08/08 04:03:50;;;;;;;3.20;1.20;;;;;;;13.24;54.15;92672.88;4789386;30;20055;-83
2023/08/08 04:06:16;;;;;;;3.10;1.30;;;;;;;13.25;54.13;92684.94;4790855;29;20035;-83
2023/08/08 04:08:41;;;;;;;2.55;1.30;;;;;;;13.26;54.30;92675.97;4787135;30;20301;-84
2023/08/08 04:11:07;;;;;;;2.00;1.20;;;;;;;13.23;54.78;92684.47;4804703;29;20062;-83
2023/08/08 04:13:34;;;;;;;2.60;1.30;;;;;;;13.19;55.00;92681.66;4804241;29;20090;-83
2023/08/08 04:16:00;;;;;;;2.58;1.40;;;;;;;13.19;54.87;92691.38;4801220;29;20044;-82
2023/08/08 04:18:26;;;;;;;2.58;1.30;;;;;;;13.24;54.92;92699.16;4772723;30;20104;-83
2023/08/08 04:20:51;;;;;;;3.30;1.50;;;;;;;13.21;54.17;92699.75;4773037;30;20099;-83
2023/08/08 04:23:17;;;;;;;3.28;1.33;;;;;;;13.19;54.43;92694.78;4771941;30;20049;-83
2023/08/08 04:25:43;;;;;;;3.03;1.30;;;;;;;13.19;55.14;92684.28;4800783;29;20109;-83
2023/08/08 04:28:08;;;;;;;3.00;1.30;;;;;;;13.18;55.22;92679.34;4772360;30;20282;-83
2023/08/08 04:30:35;;;;;;;5.72;1.50;;;;;;;13.16;54.92;92677.00;4772827;30;20039;-83
2023/08/08 04:33:00;;;;;;;2.63;1.30;;;;;;;13.18;54.43;92685.38;4773029;30;20447;-83
2023/08/08 04:35:26;;;;;;;2.35;1.20;;;;;;;13.20;53.53;92692.97;4772625;30;20122;-83
2023/08/08 04:37:52;;;;;;;2.47;1.30;;;;;;;13.22;53.15;92691.59;4789202;29;20096;-83
2023/08/08 04:40:17;;;;;;;2.25;1.23;;;;;;;13.24;54.59;92683.38;4790145;29;20409;-83
2023/08/08 04:42:43;;;;;;;2.63;1.27;;;;;;;13.24;53.87;92691.28;4789312;30;20117;-83
2023/08/08 04:45:09;;;;;;;2.58;1.27;;;;;;;13.21;53.66;92689.25;4790363;30;20035;-84
2023/08/08 04:47:35;;;;;;;3.20;1.30;;;;;;;13.22;53.57;92682.94;4789224;29;20491;-83
2023/08/08 04:50:01;;;;;;;4.28;1.45;;;;;;;13.22;54.05;92691.59;4789235;30;20039;-83
2023/08/08 04:52:26;;;;;;;2.15;1.30;;;;;;;13.22;54.99;92688.19;4791071;30;20121;-84
2023/08/08 04:54:52;;;;;;;4.72;1.45;;;;;;;13.23;55.57;92702.88;4790204;29;20126;-83
2023/08/08 04:57:17;;;;;;;2.22;1.20;;;;;;;13.22;55.99;92702.09;4788870;29;20039;-83
2023/08/08 04:59:43;;;;;;;5.13;1.40;;;;;;;13.23;56.52;92700.25;4790834;29;20055;-83
2023/08/08 05:02:09;;;;;;;2.80;1.30;;;;;;;13.22;55.72;92696.84;4786429;29;20051;-83
2023/08/08 05:04:34;;;;;;;2.25;1.33;;;;;;;13.25;56.45;92695.47;4793343;29;20138;-83
2023/08/08 05:07:00;;;;;;;2.28;1.40;;;;;;;13.25;58.84;92698.88;4793609;29;20414;-83
2023/08/08 05:09:28;;;;;;;5.57;1.50;;;;;;;13.26;59.68;92699.63;4793363;29;20043;-83
2023/08/08 05:11:53;;;;;;;2.60;1.33;;;;;;;13.28;59.14;92689.63;4776793;30;20116;-84
2023/08/08 05:14:19;;;;;;;2.75;1.27;;;;;;;13.30;58.91;92698.00;4793860;29;20051;-83
2023/08/08 05:16:46;;;;;;;4.45;1.30;;;;;;;13.35;58.75;92689.22;4792458;29;20058;-83
2023/08/08 05:19:11;;;;;;;2.60;1.30;;;;;;;13.38;58.37;92694.69;4792284;30;20069;-82
2023/08/08 05:21:37;;;;;;;7.25;1.45;;;;;;;13.40;58.69;92689.91;4792734;29;20070;-83
2023/08/08 05:24:03;;;;;;;5.47;1.60;;;;;;;13.44;58.06;92696.13;4791351;30;20587;-83
2023/08/08 05:26:28;;;;;;;2.88;1.23;;;;;;;13.47;58.95;92698.16;4792937;29;20111;-83
2023/08/08 05:28:54;;;;;;;5.38;2.00;;;;;;;13.51;60.06;92693.84;4793622;29;20047;-83
2023/08/08 05:31:20;;;;;;;3.55;1.40;;;;;;;13.56;62.84;92689.56;4791357;30;20047;-83
2023/08/08 05:33:45;;;;;;;3.58;1.50;;;;;;;13.60;62.40;92687.84;4792832;29;20046;-83
2023/08/08 05:36:11;;;;;;;2.65;1.40;;;;;;;13.63;62.43;92690.69;4776658;30;20128;-83
2023/08/08 05:38:36;;;;;;;2.28;1.13;;;;;;;13.66;63.25;92689.31;4792272;29;20368;-83
2023/08/08 05:41:02;;;;;;;2.80;1.30;;;;;;;13.77;62.68;92690.59;4792060;30;20043;-83
2023/08/08 05:43:28;;;;;;;2.30;1.30;;;;;;;13.84;61.03;92698.06;4793133;30;20043;-83
2023/08/08 05:45:54;;;;;;;2.47;1.20;;;;;;;13.88;58.71;92705.06;4792629;29;20038;-83
2023/08/08 05:48:19;;;;;;;4.78;1.50;;;;;;;13.98;59.29;92708.53;4792501;30;20411;-83
2023/08/08 05:50:45;;;;;;;3.53;1.10;;;;;;;14.04;63.78;92709.97;4792595;29;20051;-84
2023/08/08 05:53:10;;;;;;;3.08;1.20;;;;;;;14.10;64.35;92714.03;4793952;29;20050;-82
2023/08/08 05:55:36;;;;;;;5.93;1.20;;;;;;;14.16;65.18;92713.59;4792599;30;20097;-83
2023/08/08 05:58:02;;;;;;;4.70;1.50;;;;;;;14.21;64.19;92715.31;4791901;29;20035;-83
2023/08/08 06:00:27;;;;;;;4.95;1.42;;;;;;;14.28;64.47;92713.03;4791811;29;20494;-83
2023/08/08 06:02:53;;;;;;;3.60;1.40;;;;;;;14.35;64.51;92715.22;4806153;29;20055;-83
2023/08/08 06:05:21;;;;;;;4.13;1.60;;;;;;;14.46;65.28;92723.66;4791094;29;20058;-83
2023/08/08 06:07:47;;;;;;;5.07;1.60;;;;;;;14.57;67.04;92725.72;4791531;29;20487;-84
2023/08/08 06:10:12;;;;;;;9.43;1.58;;;;;;;14.68;66.92;92722.81;4792470;29;20063;-84
2023/08/08 06:12:38;;;;;;;3.60;1.60;;;;;;;14.81;68.14;92729.06;4791321;30;20061;-84
2023/08/08 06:15:04;;;;;;;3.13;1.40;;;;;;;14.99;67.41;92733.28;4791091;29;20043;-84
2023/08/08 06:17:30;;;;;;;3.47;1.30;;;;;;;15.86;65.17;92732.59;4789754;29;20098;-81
2023/08/08 06:19:58;;;;;;;4.18;1.70;;;;;;;16.39;61.33;92729.56;4787522;30;20462;-85
2023/08/08 06:22:24;;;;;;;4.70;1.48;;;;;;;16.23;58.01;92723.19;4789954;29;20047;-84
2023/08/08 06:24:49;;;;;;;4.30;1.42;;;;;;;16.23;58.17;92734.56;4790385;30;20050;-84
2023/08/08 06:27:15;;;;;;;5.43;1.40;;;;;;;16.23;56.62;92734.56;4791148;30;20126;-84
2023/08/08 06:29:41;;;;;;;3.47;1.50;;;;;;;16.19;55.38;92735.50;4790543;30;20403;-84
2023/08/08 06:32:07;;;;;;;3.10;1.48;;;;;;;16.13;54.31;92737.53;4789404;29;20077;-83
2023/08/08 06:34:33;;;;;;;3.08;1.33;;;;;;;16.17;60.92;92740.31;4775520;30;20046;-84
2023/08/08 06:36:58;;;;;;;2.95;1.40;;;;;;;16.17;62.26;92741.09;4758018;30;20040;-84
2023/08/08 06:39:24;;;;;;;3.35;1.50;;;;;;;16.17;63.77;92748.25;4786378;30;20047;-84
2023/08/08 06:41:50;;;;;;;4.97;1.60;;;;;;;16.23;64.58;92746.97;4775009;30;20039;-84
2023/08/08 06:44:21;;;;;;;7.97;1.50;;;;;;;16.22;62.71;92737.50;4776249;30;20111;-84
2023/08/08 06:46:47;;;;;;;4.25;1.52;;;;;;;16.29;60.04;92744.94;4789946;29;20099;-83
2023/08/08 06:49:12;;;;;;;4.65;1.50;;;;;;;16.37;58.56;92741.50;4791103;30;20119;-84
2023/08/08 06:51:38;;;;;;;3.22;1.40;;;;;;;16.44;63.77;92744.44;4789825;29;20047;-85
2023/08/08 06:54:03;;;;;;;5.32;1.38;;;;;;;16.48;65.32;92745.34;4790352;29;20043;-84
2023/08/08 06:56:29;;;;;;;3.38;1.40;;;;;;;16.59;63.79;92753.72;4788437;29;20040;-84
2023/08/08 06:58:54;;;;;;;4.55;1.60;;;;;;;16.75;60.66;92746.03;4790241;30;20050;-84
2023/08/08 07:01:20;;;;;;;2.70;1.42;;;;;;;16.88;63.53;92754.88;4785788;29;20561;-83
2023/08/08 07:03:49;;;;;;;3.00;1.40;;;;;;;16.85;57.45;92757.06;4788709;30;20043;-83
2023/08/08 07:06:17;;;;;;;3.20;1.42;;;;;;;16.70;53.10;92754.16;4790003;29;20114;-84
2023/08/08 07:08:43;;;;;;;5.47;1.30;;;;;;;16.68;55.63;92746.53;4789216;29;20039;-83
2023/08/08 07:11:09;;;;;;;4.97;1.30;;;;;;;16.71;58.73;92751.19;4786033;30;20070;-83
2023/08/08 07:13:34;;;;;;;2.55;1.30;;;;;;;16.83;56.93;92756.59;4787034;30;20055;-83
2023/08/08 07:16:00;;;;;;;4.45;1.60;;;;;;;16.79;55.84;92750.41;4789563;29;20031;-84
2023/08/08 07:18:26;;;;;;;2.13;1.23;;;;;;;16.68;55.61;92748.41;4789102;29;20125;-84
2023/08/08 07:20:51;;;;;;;1.90;1.08;;;;;;;16.84;56.28;92746.78;4789427;30;20039;-84
2023/08/08 07:23:17;;;;;;;3.05;1.38;;;;;;;17.05;56.96;92752.94;4789647;29;20521;-84
2023/08/08 07:25:44;;;;;;;2.97;1.30;;;;;;;16.99;57.02;92743.63;4791390;29;20083;-83
2023/08/08 07:28:10;;;;;;;3.47;1.50;;;;;;;16.91;57.81;92743.66;4789814;29;20449;-84
2023/08/08 07:30:36;;;;;;;3.15;1.42;;;;;;;17.11;59.22;92747.44;4788119;29;20043;-84
2023/08/08 07:33:02;;;;;;;3.15;1.45;;;;;;;17.11;58.56;92748.22;4789581;30;20034;-84
2023/08/08 07:35:27;;;;;;;2.55;1.33;;;;;;;17.01;57.32;92746.72;4789044;30;20189;-84
2023/08/08 07:37:53;;;;;;;3.30;1.33;;;;;;;16.98;61.29;92751.88;4788637;29;20506;-83
2023/08/08 07:40:20;;;;;;;7.22;1.40;;;;;;;17.21;60.06;92750.50;4789218;29;20108;-83
2023/08/08 07:42:47;;;;;;;2.83;1.48;;;;;;;17.28;61.62;92748.13;4787906;30;20031;-84
2023/08/08 07:45:13;;;;;;;2.97;1.40;;;;;;;17.37;61.52;92748.06;4789909;30;20067;-84
2023/08/08 07:47:39;;;;;;;3.95;1.40;;;;;;;17.53;62.31;92750.91;4790414;29;20387;-83
2023/08/08 07:50:08;;;;;;;2.15;1.33;;;;;;;17.50;61.69;92754.22;4792025;29;20059;-85
2023/08/08 07:52:36;;;;;;;6.82;1.58;;;;;;;17.60;61.29;92748.53;4790176;29;20047;-85
2023/08/08 07:55:03;;;;;;;3.55;1.80;;;;;;;17.56;62.54;92755.59;4788378;30;20058;-84
2023/08/08 07:57:30;;;;;;;4.57;1.45;;;;;;;17.60;63.15;92748.53;4788991;29;20050;-84
2023/08/08 07:59:56;;;;;;;3.08;1.42;;;;;;;17.48;62.07;92751.13;4793250;29;20046;-84
2023/08/08 08:02:22;;;;;;;2.53;1.35;;;;;;;17.38;63.44;92751.47;4804351;29;20391;-84
2023/08/08 08:04:47;;;;;;;2.38;1.42;;;;;;;17.33;63.18;92749.03;4789685;30;20161;-86
2023/08/08 08:07:13;;;;;;;4.40;1.35;;;;;;;17.30;63.16;92745.16;4791024;29;20405;-84
2023/08/08 08:09:42;;;;;;;3.60;1.60;;;;;;;17.30;63.29;92750.47;4789928;29;20580;-85
2023/08/08 08:12:08;;;;;;;2.92;1.40;;;;;;;17.50;62.87;92748.16;4791235;30;20057;-85
2023/08/08 08:14:34;;;;;;;3.97;1.50;;;;;;;17.48;62.29;92746.59;4787657;30;20078;-85
2023/08/08 08:17:00;;;;;;;4.18;1.40;;;;;;;17.32;64.05;92744.84;4789706;30;20409;-84
2023/08/08 08:19:25;;;;;;;3.08;1.50;;;;;;;17.29;63.82;92751.53;4788073;30;20054;-85
2023/08/08 08:21:51;;;;;;;3.42;1.52;;;;;;;17.55;65.05;92755.91;4790981;29;20133;-85
2023/08/08 08:24:17;;;;;;;5.40;1.50;;;;;;;17.67;64.43;92750.66;4790676;30;20063;-84
2023/08/08 08:26:42;;;;;;;2.60;1.40;;;;;;;17.74;64.88;92747.50;4786976;29;20040;-84
2023/08/08 08:29:08;;;;;;;3.78;1.50;;;;;;;17.65;66.22;92751.00;4790305;30;20142;-85
2023/08/08 08:31:33;;;;;;;3.83;1.65;;;;;;;17.61;66.10;92755.38;4788382;29;20054;-86
2023/08/08 08:33:59;;;;;;;3.15;1.50;;;;;;;17.61;67.57;92760.69;4789699;30;20527;-84
2023/08/08 08:36:26;;;;;;;3.85;1.65;;;;;;;17.73;66.47;92767.91;4787577;29;20051;-86
2023/08/08 08:38:52;;;;;;;3.50;1.50;;;;;;;17.86;66.26;92763.47;4793114;29;20035;-85
2023/08/08 08:41:20;;;;;;;3.00;1.60;;;;;;;18.03;64.50;92760.66;4791981;30;20047;-87
2023/08/08 08:43:48;;;;;;;2.30;1.35;;;;;;;18.25;63.17;92758.78;4806623;29;20051;-86
2023/08/08 08:46:18;;;;;;;3.00;1.60;;;;;;;18.28;62.82;92755.44;4791395;30;20031;-85
2023/08/08 08:48:44;;;;;;;2.50;1.40;;;;;;;18.18;63.30;92766.47;4786037;30;20043;-87
2023/08/08 08:51:10;;;;;;;2.60;1.25;;;;;;;18.14;61.55;92766.34;4792347;30;20047;-86
2023/08/08 08:53:38;;;;;;;2.60;1.40;;;;;;;18.08;62.14;92759.69;4792226;29;20044;-86
2023/08/08 08:56:04;;;;;;;2.33;1.40;;;;;;;18.31;62.34;92754.81;4792215;29;20047;-85
2023/08/08 08:58:30;;;;;;;2.00;1.23;;;;;;;18.56;61.50;92760.19;4791726;30;20051;-86
2023/08/08 09:00:58;;;;;;;5.18;1.40;;;;;;;18.62;62.72;92764.94;4791375;30;20114;-87
2023/08/08 09:03:24;;;;;;;2.58;1.38;;;;;;;18.59;60.31;92770.13;4792060;30;20035;-87
2023/08/08 09:05:52;;;;;;;3.63;1.63;;;;;;;18.57;61.46;92770.44;4788376;29;20039;-84
2023/08/08 09:08:17;;;;;;;3.38;1.63;;;;;;;18.57;61.47;92762.47;4792617;29;20126;-84
2023/08/08 09:10:43;;;;;;;5.10;1.48;;;;;;;18.51;61.73;92761.94;4791883;29;20158;-84
2023/08/08 09:13:08;;;;;;;3.15;1.40;;;;;;;18.44;61.24;92766.22;4789965;29;20055;-82
2023/08/08 09:15:34;;;;;;;3.10;1.50;;;;;;;18.52;59.58;92758.16;4806922;29;20395;-86
2023/08/08 09:18:01;;;;;;;3.33;1.70;;;;;;;18.51;57.82;92769.88;4790537;30;20302;-86
2023/08/08 09:20:28;;;;;;;3.55;1.50;;;;;;;18.40;59.69;92766.09;4790357;29;20043;-86
2023/08/08 09:22:54;;;;;;;3.70;1.48;;;;;;;18.57;60.63;92767.78;4791401;30;20047;-86
2023/08/08 09:25:19;;;;;;;3.40;1.77;;;;;;;18.76;61.07;92764.63;4789616;30;20046;-85
2023/08/08 09:27:45;;;;;;;3.50;1.67;;;;;;;18.87;62.66;92767.66;4789506;29;20499;-86
2023/08/08 09:30:11;;;;;;;4.80;1.52;;;;;;;19.34;59.15;92767.97;4790439;30;20044;-85
2023/08/08 09:32:37;;;;;;;3.75;1.40;;;;;;;19.48;57.35;92778.25;4789984;29;20042;-87
2023/08/08 09:35:03;;;;;;;3.60;1.58;;;;;;;19.48;51.81;92780.91;4790103;30;20035;-85
2023/08/08 09:37:29;;;;;;;2.45;1.30;;;;;;;19.86;49.37;92776.31;4802752;29;20043;-86
2023/08/08 09:40:05;;;;;;;2.33;1.20;;;;;;;19.82;49.51;92770.91;4788881;30;20054;-83
2023/08/08 09:42:31;;;;;;;2.47;1.25;;;;;;;19.73;43.83;92778.25;4786012;30;20043;-86
2023/08/08 09:44:57;;;;;;;3.60;1.27;;;;;;;19.88;51.36;92769.56;4793687;29;20134;-85
2023/08/08 09:47:24;;;;;;;3.35;1.60;;;;;;;19.79;51.27;92776.09;4803485;29;20107;-86
2023/08/08 09:49:50;;;;;;;5.10;1.40;;;;;;;20.15;52.82;92772.56;4790487;29;20542;-86
2023/08/08 09:52:17;;;;;;;3.15;1.50;;;;;;;20.31;49.44;92764.63;4790911;29;20542;-85
2023/08/08 09:54:43;;;;;;;3.13;1.30;;;;;;;20.24;49.54;92770.53;4790871;29;20133;-85
2023/08/08 09:57:08;;;;;;;4.18;1.50;;;;;;;19.97;47.51;92764.09;4790040;29;20059;-85
2023/08/08 09:59:35;;;;;;;2.88;1.50;;;;;;;19.90;42.41;92767.31;4790364;29;20051;-85
2023/08/08 10:02:01;;;;;;;3.85;1.40;;;;;;;20.05;47.15;92771.16;4788727;29;20142;-83
2023/08/08 10:04:27;;;;;;;3.13;1.50;;;;;;;20.35;49.67;92771.59;4789738;30;20038;-84
2023/08/08 10:06:53;;;;;;;6.97;1.60;;;;;;;20.18;46.91;92772.66;4790276;29;20411;-84
2023/08/08 10:09:19;;;;;;;2.60;1.40;;;;;;;20.04;47.31;92772.28;4789252;30;20043;-83
2023/08/08 10:11:46;;;;;;;2.97;1.23;;;;;;;20.26;43.45;92762.22;4787097;30;20052;-83
2023/08/08 10:14:14;;;;;;;3.90;1.30;;;;;;;20.12;42.42;92760.72;4789321;29;20521;-83
2023/08/08 10:16:41;;;;;;;3.25;1.30;;;;;;;19.97;42.21;92766.75;4788539;29;20097;-83
2023/08/08 10:19:07;;;;;;;3.30;1.40;;;;;;;20.08;42.13;92759.84;4787547;30;20035;-83
2023/08/08 10:21:40;;;;;;;6.10;1.30;;;;;;;20.57;40.73;92769.50;4789559;30;20058;-83
2023/08/08 10:24:08;;;;;;;1.90;1.17;;;;;;;20.50;39.60;92764.75;4789432;29;20399;-83
2023/08/08 10:26:50;;;;;;;2.67;1.30;;;;;;;20.89;42.76;92756.22;4789193;29;20039;-84
2023/08/08 10:29:20;;;;;;;2.22;1.08;;;;;;;20.91;42.99;92760.09;4775308;30;20071;-84
2023/08/08 10:31:53;;;;;;;2.22;1.20;;;;;;;20.92;42.84;92755.56;4789906;30;20040;-83
2023/08/08 10:34:35;;;;;;;2.70;1.40;;;;;;;21.14;41.74;92751.50;4788403;29;20068;-84
2023/08/08 10:37:05;;;;;;;2.13;1.00;;;;;;;21.81;38.13;92757.56;4790529;29;20072;-82
2023/08/08 10:39:31;;;;;;;2.80;1.30;;;;;;;22.01;34.80;92752.25;4789784;29;20487;-83
2023/08/08 10:42:02;;;;;;;1.58;0.90;;;;;;;22.47;36.70;92743.59;4790114;30;20540;-83
2023/08/08 10:44:28;;;;;;;2.88;1.20;;;;;;;22.78;35.44;92747.94;4789544;30;20030;-83
2023/08/08 10:46:54;;;;;;;2.38;1.10;;;;;;;22.81;38.42;92741.91;4789036;29;20039;-84
2023/08/08 10:49:21;;;;;;;1.70;0.90;;;;;;;22.32;36.59;92743.34;4786819;30;20047;-83
2023/08/08 10:51:48;;;;;;;3.70;1.50;;;;;;;22.32;35.89;92731.91;4790175;29;20051;-83
2023/08/08 10:54:18;;;;;;;2.60;1.20;;;;;;;22.40;37.39;92746.91;4791144;30;20550;-84
2023/08/08 10:56:48;;;;;;;1.55;0.93;;;;;;;22.51;36.57;92737.19;4789480;29;20047;-84
2023/08/08 10:59:21;;;;;;;3.20;1.20;;;;;;;22.21;36.71;92737.03;4788755;30;20428;-84
2023/08/08 11:01:49;;;;;;;1.67;1.08;;;;;;;22.11;36.56;92738.38;4789017;29;20039;-84
2023/08/08 11:04:19;;;;;;;2.28;1.13;;;;;;;21.82;36.13;92731.72;4788266;29;20110;-85
2023/08/08 11:06:45;;;;;;;4.40;1.17;;;;;;;21.85;37.29;92732.91;4790896;29;20031;-84
2023/08/08 11:09:10;;;;;;;1.83;1.05;;;;;;;22.00;37.35;92734.72;4790625;29;20041;-84
2023/08/08 11:11:40;;;;;;;2.17;1.20;;;;;;;22.14;35.75;92724.31;4785885;30;20035;-84
2023/08/08 11:14:24;;;;;;;2.60;1.20;;;;;;;22.24;37.85;92717.66;4789878;29;20118;-82
2023/08/08 11:16:51;;;;;;;1.65;1.00;;;;;;;21.73;36.45;92723.91;4784277;29;20047;-84
2023/08/08 11:19:19;;;;;;;2.75;1.20;;;;;;;21.43;37.30;92731.63;4792224;29;20063;-83
2023/08/08 11:21:46;;;;;;;5.38;1.30;;;;;;;21.55;36.94;92734.19;4787925;29;20058;-84
2023/08/08 11:24:12;;;;;;;1.50;0.90;;;;;;;21.12;32.75;92733.22;4791448;29;20055;-83
2023/08/08 11:26:40;;;;;;;3.80;1.30;;;;;;;20.89;33.73;92734.94;4789575;29;20039;-83
2023/08/08 11:29:07;;;;;;;2.33;1.15;;;;;;;20.99;35.63;92729.88;4790281;29;20032;-82
2023/08/08 11:31:35;;;;;;;2.60;0.88;;;;;;;21.32;32.80;92723.41;4793130;29;20241;-82